createdAt,value
2016-08-17T00:03:20.846Z,20.58
2016-08-17T00:08:18.363Z,20.58
2016-08-17T00:13:16.127Z,20.51
2016-08-17T00:18:13.850Z,20.62
2016-08-17T00:23:11.523Z,20.47
2016-08-17T00:28:09.008Z,20.52
2016-08-17T00:33:06.702Z,20.48
2016-08-17T00:38:04.375Z,20.43
2016-08-17T00:43:02.007Z,20.34
2016-08-17T00:47:59.745Z,20.31
2016-08-17T00:52:57.657Z,20.28
2016-08-17T00:57:55.281Z,20.31
2016-08-17T01:02:53.102Z,20.34
2016-08-17T01:07:51.047Z,20.16
2016-08-17T01:12:48.662Z,20.10
2016-08-17T01:17:46.247Z,20.07
2016-08-17T01:22:43.909Z,20.14
2016-08-17T01:27:41.757Z,20.10
2016-08-17T01:32:39.315Z,20.11
2016-08-17T01:37:37.001Z,20.11
2016-08-17T01:42:34.821Z,20.07
2016-08-17T01:47:32.348Z,20.09
2016-08-17T01:52:29.964Z,20.07
2016-08-17T01:57:27.642Z,20.00
2016-08-17T02:02:25.355Z,19.94
2016-08-17T02:07:23.094Z,19.96
2016-08-17T02:12:20.941Z,20.00
2016-08-17T02:17:18.567Z,20.11
2016-08-17T02:22:16.340Z,20.07
2016-08-17T02:27:14.623Z,20.04
2016-08-17T02:32:12.089Z,20.11
2016-08-17T02:37:10.753Z,20.18
2016-08-17T02:42:08.246Z,20.18
2016-08-17T02:47:06.046Z,20.06
2016-08-17T02:52:03.787Z,20.11
2016-08-17T02:57:01.786Z,19.96
2016-08-17T03:01:59.485Z,19.94
2016-08-17T03:06:57.175Z,20.02
2016-08-17T03:11:54.950Z,20.03
2016-08-17T03:16:52.668Z,19.89
2016-08-17T03:21:50.344Z,20.00
2016-08-17T03:26:48.072Z,19.94
2016-08-17T03:31:45.799Z,20.00
2016-08-17T03:36:43.651Z,19.99
2016-08-17T03:41:41.248Z,19.92
2016-08-17T03:46:38.911Z,19.96
2016-08-17T03:51:36.693Z,19.94
2016-08-17T03:56:34.451Z,20.02
2016-08-17T04:01:32.147Z,19.94
2016-08-17T04:06:29.740Z,20.04
2016-08-17T04:11:27.452Z,20.09
2016-08-17T04:16:25.106Z,19.95
2016-08-17T04:21:22.888Z,19.94
2016-08-17T04:26:20.526Z,19.73
2016-08-17T04:31:18.427Z,19.70
2016-08-17T04:36:16.124Z,19.69
2016-08-17T04:41:13.807Z,19.63
2016-08-17T04:46:11.426Z,19.54
2016-08-17T04:51:09.083Z,19.51
2016-08-17T04:56:06.908Z,19.51
2016-08-17T05:01:04.450Z,19.59
2016-08-17T05:06:02.136Z,19.77
2016-08-17T05:10:59.820Z,19.92
2016-08-17T05:15:57.652Z,19.92
2016-08-17T05:20:55.351Z,19.82
2016-08-17T05:25:53.374Z,19.92
2016-08-17T05:30:51.268Z,20.41
2016-08-17T05:35:49.245Z,21.43
2016-08-17T05:40:46.960Z,21.30
2016-08-17T05:45:44.647Z,21.09
2016-08-17T05:50:42.250Z,21.15
2016-08-17T05:55:40.087Z,21.27
2016-08-17T06:00:38.052Z,21.51
2016-08-17T06:05:35.849Z,21.52
2016-08-17T06:10:33.765Z,21.69
2016-08-17T06:15:31.511Z,22.83
2016-08-17T06:20:29.425Z,24.13
2016-08-17T06:25:27.231Z,24.13
2016-08-17T06:30:24.976Z,23.66
2016-08-17T06:35:22.644Z,22.83
2016-08-17T06:40:20.172Z,22.48
2016-08-17T06:45:17.592Z,22.07
2016-08-17T06:50:15.191Z,21.80
2016-08-17T06:55:12.840Z,21.48
2016-08-17T07:00:10.413Z,21.32
2016-08-17T07:05:07.848Z,21.64
2016-08-17T07:10:05.607Z,21.62
2016-08-17T07:15:03.362Z,21.45
2016-08-17T07:20:01.098Z,21.39
2016-08-17T07:24:58.865Z,21.36
2016-08-17T07:29:56.804Z,21.48
2016-08-17T07:34:54.555Z,21.37
2016-08-17T07:39:52.202Z,21.45
2016-08-17T07:44:50.131Z,21.51
2016-08-17T07:49:47.729Z,21.32
2016-08-17T07:54:45.383Z,21.30
2016-08-17T07:59:43.126Z,21.40
2016-08-17T08:04:40.928Z,21.40
2016-08-17T08:09:38.938Z,22.32
2016-08-17T08:14:37.424Z,23.76
2016-08-17T08:19:35.761Z,24.39
2016-08-17T08:24:34.109Z,24.66
2016-08-17T08:29:32.143Z,24.70
2016-08-17T08:34:30.512Z,24.55
2016-08-17T08:39:28.444Z,24.36
2016-08-17T08:44:26.328Z,24.23
2016-08-17T08:49:24.052Z,24.24
2016-08-17T08:54:21.756Z,24.24
2016-08-17T08:59:19.646Z,24.24
2016-08-17T09:04:17.376Z,24.21
2016-08-17T09:09:14.811Z,24.16
2016-08-17T09:14:12.692Z,23.95
2016-08-17T09:19:10.001Z,23.96
2016-08-17T09:24:07.671Z,24.02
2016-08-17T09:29:05.432Z,23.96
2016-08-17T09:34:02.784Z,23.80
2016-08-17T09:39:00.399Z,23.55
2016-08-17T09:43:58.100Z,23.48
2016-08-17T09:48:55.598Z,23.44
2016-08-17T09:53:52.997Z,23.34
2016-08-17T09:58:50.651Z,23.23
2016-08-17T10:03:48.460Z,23.13
2016-08-17T10:08:46.112Z,23.17
2016-08-17T10:13:43.617Z,23.05
2016-08-17T10:18:41.290Z,23.03
2016-08-17T10:23:38.975Z,23.05
2016-08-17T10:28:36.676Z,23.06
2016-08-17T10:33:34.299Z,22.99
2016-08-17T10:38:31.940Z,22.91
2016-08-17T10:43:29.546Z,23.03
2016-08-17T10:48:27.261Z,22.88
2016-08-17T10:53:25.075Z,23.00
2016-08-17T10:58:22.738Z,22.99
2016-08-17T11:03:20.768Z,23.02
2016-08-17T11:08:18.381Z,23.02
2016-08-17T11:13:16.244Z,23.05
2016-08-17T11:18:13.785Z,23.06
2016-08-17T11:23:11.290Z,23.15
2016-08-17T11:28:09.092Z,23.24
2016-08-17T11:33:07.008Z,23.13
2016-08-17T11:38:04.690Z,23.20
2016-08-17T11:43:02.443Z,23.28
2016-08-17T11:48:00.122Z,23.24
2016-08-17T11:52:57.775Z,23.31
2016-08-17T11:57:55.774Z,23.24
2016-08-17T12:02:53.468Z,23.25
2016-08-17T12:07:51.210Z,23.32
2016-08-17T12:12:48.897Z,23.25
2016-08-17T12:17:46.785Z,23.36
2016-08-17T12:22:44.499Z,23.31
2016-08-17T12:27:42.177Z,23.40
2016-08-17T12:32:39.692Z,23.41
2016-08-17T12:37:37.449Z,23.50
2016-08-17T12:42:35.069Z,23.46
2016-08-17T12:47:32.580Z,23.55
2016-08-17T12:52:30.259Z,23.56
2016-08-17T12:57:27.935Z,23.65
2016-08-17T13:02:25.659Z,23.61
2016-08-17T13:07:23.510Z,23.76
2016-08-17T13:12:21.349Z,23.86
2016-08-17T13:17:19.291Z,23.91
2016-08-17T13:22:16.987Z,23.88
2016-08-17T13:27:14.723Z,23.84
2016-08-17T13:32:12.513Z,23.84
2016-08-17T13:37:10.136Z,23.86
2016-08-17T13:42:08.069Z,23.83
2016-08-17T13:47:05.666Z,23.87
2016-08-17T13:52:03.368Z,23.74
2016-08-17T13:57:01.028Z,23.73
2016-08-17T14:01:58.894Z,23.74
2016-08-17T14:06:56.457Z,23.83
2016-08-17T14:11:54.163Z,23.84
2016-08-17T14:16:51.733Z,23.80
2016-08-17T14:21:49.593Z,23.77
2016-08-17T14:26:47.205Z,23.77
2016-08-17T14:31:45.128Z,23.83
2016-08-17T14:36:42.767Z,23.84
2016-08-17T14:41:40.540Z,23.81
2016-08-17T14:46:38.149Z,23.86
2016-08-17T14:51:35.880Z,23.68
2016-08-17T14:56:33.435Z,23.68
2016-08-17T15:01:31.298Z,23.74
2016-08-17T15:06:29.027Z,23.63
2016-08-17T15:11:26.737Z,23.56
2016-08-17T15:16:24.647Z,23.66
2016-08-17T15:21:22.282Z,23.56
2016-08-17T15:26:20.250Z,23.50
2016-08-17T15:31:17.719Z,23.54
2016-08-17T15:36:15.706Z,23.51
2016-08-17T15:41:13.370Z,23.58
2016-08-17T15:46:11.233Z,23.59
2016-08-17T15:51:08.887Z,23.61
2016-08-17T15:56:06.534Z,23.56
2016-08-17T16:01:04.567Z,23.56
2016-08-17T16:06:02.170Z,23.46
2016-08-17T16:10:59.873Z,23.43
2016-08-17T16:15:57.448Z,23.47
2016-08-17T16:20:55.074Z,23.46
2016-08-17T16:25:52.685Z,23.48
2016-08-17T16:30:50.412Z,23.47
2016-08-17T16:35:48.325Z,23.44
2016-08-17T16:40:45.866Z,23.44
2016-08-17T16:45:43.580Z,23.44
2016-08-17T16:50:41.496Z,23.40
2016-08-17T16:55:39.161Z,23.47
2016-08-17T17:00:36.882Z,23.41
2016-08-17T17:05:34.574Z,23.39
2016-08-17T17:10:32.208Z,23.39
2016-08-17T17:15:29.916Z,23.31
2016-08-17T17:20:27.634Z,23.31
2016-08-17T17:25:25.266Z,23.21
2016-08-17T17:30:23.029Z,23.32
2016-08-17T17:35:20.637Z,23.28
2016-08-17T17:40:18.483Z,23.23
2016-08-17T17:45:16.076Z,23.18
2016-08-17T17:50:14.006Z,23.17
2016-08-17T17:55:11.586Z,23.06
2016-08-17T18:00:09.220Z,23.10
2016-08-17T18:05:06.905Z,23.05
2016-08-17T18:10:04.791Z,22.99
2016-08-17T18:15:02.328Z,22.93
2016-08-17T18:20:00.089Z,22.81
2016-08-17T18:24:57.805Z,22.78
2016-08-17T18:29:55.562Z,22.76
2016-08-17T18:34:53.271Z,22.78
2016-08-17T18:39:51.120Z,22.70
2016-08-17T18:44:48.691Z,22.60
2016-08-17T18:49:46.352Z,22.63
2016-08-17T18:54:43.999Z,22.53
2016-08-17T18:59:41.801Z,22.51
2016-08-17T19:04:39.483Z,22.55
2016-08-17T19:09:37.261Z,22.43
2016-08-17T19:14:35.156Z,22.44
2016-08-17T19:19:32.921Z,22.43
2016-08-17T19:24:30.587Z,22.29
2016-08-17T19:29:28.702Z,22.36
2016-08-17T19:34:26.282Z,22.25
2016-08-17T19:39:24.014Z,22.22
2016-08-17T19:44:21.755Z,22.14
2016-08-17T19:49:19.327Z,22.13
2016-08-17T19:54:17.146Z,22.17
2016-08-17T19:59:14.744Z,22.23
2016-08-17T20:04:12.552Z,22.20
2016-08-17T20:09:11.292Z,22.20
2016-08-17T20:14:08.748Z,22.11
2016-08-17T20:19:06.545Z,22.10
2016-08-17T20:24:04.107Z,22.04
2016-08-17T20:29:01.886Z,21.96
2016-08-17T20:33:59.851Z,21.91
2016-08-17T20:38:57.385Z,21.77
2016-08-17T20:43:55.159Z,21.79
2016-08-17T20:48:52.705Z,21.76
2016-08-17T20:53:50.453Z,21.73
2016-08-17T20:58:48.190Z,22.07
2016-08-17T21:03:45.883Z,22.33
2016-08-17T21:08:43.813Z,22.28
2016-08-17T21:13:41.492Z,22.14
2016-08-17T21:18:39.047Z,22.02
2016-08-17T21:23:36.989Z,21.92
2016-08-17T21:28:34.619Z,21.75
2016-08-17T21:33:32.222Z,21.62
2016-08-17T21:38:30.055Z,21.69
2016-08-17T21:43:27.641Z,21.64
2016-08-17T21:48:25.592Z,21.55
2016-08-17T21:53:23.194Z,21.55
2016-08-17T21:58:20.806Z,21.50
2016-08-17T22:03:18.507Z,21.39
2016-08-17T22:08:16.090Z,21.22
2016-08-17T22:13:13.915Z,21.30
2016-08-17T22:18:11.653Z,21.37
2016-08-17T22:23:09.359Z,21.30
2016-08-17T22:28:07.205Z,21.24
2016-08-17T22:33:04.800Z,21.21
2016-08-17T22:38:02.505Z,21.24
2016-08-17T22:43:00.138Z,21.06
2016-08-17T22:47:57.932Z,20.82
2016-08-17T22:52:55.547Z,20.82
2016-08-17T22:57:53.174Z,20.82
2016-08-17T23:02:50.978Z,20.70
2016-08-17T23:07:49.434Z,20.60
2016-08-17T23:12:46.845Z,20.59
2016-08-17T23:17:44.524Z,20.66
2016-08-17T23:22:42.299Z,20.81
2016-08-17T23:27:40.158Z,20.87
2016-08-17T23:32:37.978Z,20.81
2016-08-17T23:37:35.656Z,20.75
2016-08-17T23:42:33.545Z,20.72
2016-08-17T23:47:31.207Z,20.67
2016-08-17T23:52:29.130Z,20.81
2016-08-17T23:57:26.834Z,20.72
